createdAt,value
2022-09-27T00:00:32.464Z,977.29
2022-09-27T00:01:32.487Z,977.18
2022-09-27T00:02:32.525Z,977.18
2022-09-27T00:03:32.471Z,977.18
2022-09-27T00:04:32.436Z,977.15
2022-09-27T00:05:32.426Z,977.15
2022-09-27T00:06:32.421Z,977.14
2022-09-27T00:07:32.414Z,977.17
2022-09-27T00:08:32.444Z,977.14
2022-09-27T00:09:32.401Z,977.08
2022-09-27T00:10:32.383Z,977.08
2022-09-27T00:11:32.378Z,977.06
2022-09-27T00:12:32.373Z,977.07
2022-09-27T00:13:32.391Z,977.11
2022-09-27T00:14:32.357Z,977.11
2022-09-27T00:15:32.401Z,977.15
2022-09-27T00:16:32.335Z,977.11
2022-09-27T00:17:32.327Z,977.07
2022-09-27T00:18:33.345Z,977.05
2022-09-27T00:19:32.311Z,977.10
2022-09-27T00:20:32.303Z,977.08
2022-09-27T00:21:32.306Z,977.06
2022-09-27T00:22:32.284Z,977.03
2022-09-27T00:23:32.310Z,977.05
2022-09-27T00:24:32.273Z,977.11
2022-09-27T00:25:32.258Z,977.09
2022-09-27T00:26:32.259Z,977.18
2022-09-27T00:27:32.249Z,977.09
2022-09-27T00:28:32.271Z,977.11
2022-09-27T00:29:32.228Z,977.09
2022-09-27T00:30:32.219Z,977.09
2022-09-27T00:31:32.306Z,977.14
2022-09-27T00:32:32.214Z,977.05
2022-09-27T00:33:32.239Z,977.04
2022-09-27T00:34:32.194Z,976.98
2022-09-27T00:35:32.185Z,977.00
2022-09-27T00:36:32.176Z,976.99
2022-09-27T00:37:32.166Z,976.96
2022-09-27T00:38:32.189Z,976.99
2022-09-27T00:39:32.155Z,976.98
2022-09-27T00:40:32.186Z,977.00
2022-09-27T00:41:32.135Z,976.96
2022-09-27T00:42:32.134Z,977.02
2022-09-27T00:43:32.126Z,977.00
2022-09-27T00:44:32.140Z,976.97
2022-09-27T00:45:32.106Z,976.97
2022-09-27T00:46:32.182Z,976.93
2022-09-27T00:47:32.087Z,976.95
2022-09-27T00:48:32.078Z,976.92
2022-09-27T00:49:32.107Z,976.93
2022-09-27T00:50:32.067Z,976.91
2022-09-27T00:51:32.068Z,976.87
2022-09-27T00:52:32.049Z,976.89
2022-09-27T00:53:32.034Z,976.88
2022-09-27T00:54:32.056Z,976.85
2022-09-27T00:55:32.020Z,976.87
2022-09-27T00:56:32.016Z,976.80
2022-09-27T00:57:32.004Z,976.78
2022-09-27T00:58:31.990Z,976.75
2022-09-27T00:59:32.015Z,976.72
2022-09-27T01:00:31.987Z,976.66
2022-09-27T01:01:31.999Z,976.70
2022-09-27T01:02:32.016Z,976.67
2022-09-27T01:03:31.953Z,976.63
2022-09-27T01:04:31.971Z,976.71
2022-09-27T01:05:31.938Z,976.67
2022-09-27T01:06:31.926Z,976.67
2022-09-27T01:07:32.918Z,976.65
2022-09-27T01:08:31.917Z,976.64
2022-09-27T01:09:31.929Z,976.65
2022-09-27T01:10:31.899Z,976.62
2022-09-27T01:11:31.893Z,976.68
2022-09-27T01:12:31.878Z,976.66
2022-09-27T01:13:31.872Z,976.69
2022-09-27T01:14:31.895Z,976.66
2022-09-27T01:15:31.896Z,976.63
2022-09-27T01:16:31.847Z,976.63
2022-09-27T01:17:31.838Z,976.61
2022-09-27T01:18:31.834Z,976.58
2022-09-27T01:19:31.853Z,976.58
2022-09-27T01:20:31.821Z,976.58
2022-09-27T01:21:31.807Z,976.58
2022-09-27T01:22:31.802Z,976.59
2022-09-27T01:23:31.818Z,976.64
2022-09-27T01:24:31.804Z,976.59
2022-09-27T01:25:31.771Z,976.59
2022-09-27T01:26:31.764Z,976.57
2022-09-27T01:27:31.760Z,976.58
2022-09-27T01:28:31.749Z,976.58
2022-09-27T01:29:31.766Z,976.60
2022-09-27T01:30:31.727Z,976.57
2022-09-27T01:31:31.752Z,976.59
2022-09-27T01:32:31.736Z,976.57
2022-09-27T01:33:31.713Z,976.53
2022-09-27T01:34:31.723Z,976.52
2022-09-27T01:35:31.686Z,976.51
2022-09-27T01:36:31.680Z,976.50
2022-09-27T01:37:31.668Z,976.51
2022-09-27T01:38:31.664Z,976.46
2022-09-27T01:39:31.682Z,976.49
2022-09-27T01:40:31.671Z,976.49
2022-09-27T01:41:31.642Z,976.52
2022-09-27T01:42:31.627Z,976.44
2022-09-27T01:43:31.628Z,976.50
2022-09-27T01:44:31.645Z,976.55
2022-09-27T01:45:31.608Z,976.53
2022-09-27T01:46:31.660Z,976.51
2022-09-27T01:47:31.594Z,976.46
2022-09-27T01:48:31.586Z,976.45
2022-09-27T01:49:31.599Z,976.53
2022-09-27T01:50:31.569Z,976.44
2022-09-27T01:51:31.559Z,976.51
2022-09-27T01:52:31.549Z,976.51
2022-09-27T01:53:31.549Z,976.42
2022-09-27T01:54:31.561Z,976.42
2022-09-27T01:55:31.529Z,976.40
2022-09-27T01:56:31.521Z,976.40
2022-09-27T01:57:31.512Z,976.37
2022-09-27T01:58:31.505Z,976.44
2022-09-27T01:59:31.531Z,976.42
2022-09-27T02:00:31.492Z,976.42
2022-09-27T02:01:31.574Z,976.39
2022-09-27T02:02:31.523Z,976.36
2022-09-27T02:03:31.473Z,976.35
2022-09-27T02:04:31.482Z,976.43
2022-09-27T02:05:31.452Z,976.43
2022-09-27T02:06:31.431Z,976.39
2022-09-27T02:07:31.431Z,976.40
2022-09-27T02:08:31.426Z,976.41
2022-09-27T02:09:31.444Z,976.40
2022-09-27T02:10:31.411Z,976.32
2022-09-27T02:11:31.394Z,976.34
2022-09-27T02:12:31.390Z,976.31
2022-09-27T02:13:31.380Z,976.36
2022-09-27T02:14:31.399Z,976.33
2022-09-27T02:15:31.422Z,976.35
2022-09-27T02:16:31.355Z,976.36
2022-09-27T02:17:31.335Z,976.37
2022-09-27T02:18:32.341Z,976.30
2022-09-27T02:19:31.359Z,976.35
2022-09-27T02:20:31.317Z,976.31
2022-09-27T02:21:31.312Z,976.29
2022-09-27T02:22:31.302Z,976.33
2022-09-27T02:23:31.296Z,976.32
2022-09-27T02:24:31.314Z,976.35
2022-09-27T02:25:31.281Z,976.29
2022-09-27T02:26:31.272Z,976.33
2022-09-27T02:27:31.263Z,976.30
2022-09-27T02:28:31.248Z,976.22
2022-09-27T02:29:31.269Z,976.26
2022-09-27T02:30:31.277Z,976.28
2022-09-27T02:31:31.275Z,976.29
2022-09-27T02:32:31.216Z,976.30
2022-09-27T02:33:31.205Z,976.25
2022-09-27T02:34:31.225Z,976.23
2022-09-27T02:35:31.194Z,976.29
2022-09-27T02:36:31.184Z,976.35
2022-09-27T02:37:31.170Z,976.30
2022-09-27T02:38:31.172Z,976.29
2022-09-27T02:39:31.192Z,976.29
2022-09-27T02:40:31.233Z,976.33
2022-09-27T02:41:31.148Z,976.25
2022-09-27T02:42:31.149Z,976.23
2022-09-27T02:43:31.133Z,976.29
2022-09-27T02:44:31.150Z,976.36
2022-09-27T02:45:31.115Z,976.27
2022-09-27T02:46:31.137Z,976.24
2022-09-27T02:47:31.096Z,976.29
2022-09-27T02:48:31.074Z,976.32
2022-09-27T02:49:32.106Z,976.22
2022-09-27T02:50:31.073Z,976.30
2022-09-27T02:51:31.061Z,976.27
2022-09-27T02:52:31.054Z,976.22
2022-09-27T02:53:31.046Z,976.22
2022-09-27T02:54:31.068Z,976.28
2022-09-27T02:55:31.024Z,976.32
2022-09-27T02:56:31.018Z,976.26
2022-09-27T02:57:31.010Z,976.28
2022-09-27T02:58:30.995Z,976.32
2022-09-27T02:59:31.017Z,976.32
2022-09-27T03:00:30.986Z,976.33
2022-09-27T03:01:31.002Z,976.29
2022-09-27T03:02:31.995Z,976.34
2022-09-27T03:03:30.962Z,976.25
2022-09-27T03:04:30.984Z,976.29
2022-09-27T03:05:30.946Z,976.30
2022-09-27T03:06:30.936Z,976.29
2022-09-27T03:07:30.928Z,976.29
2022-09-27T03:08:30.926Z,976.28
2022-09-27T03:09:30.946Z,976.26
2022-09-27T03:10:30.920Z,976.25
2022-09-27T03:11:30.900Z,976.29
2022-09-27T03:12:30.905Z,976.19
2022-09-27T03:13:30.886Z,976.20
2022-09-27T03:14:30.900Z,976.24
2022-09-27T03:15:30.875Z,976.26
2022-09-27T03:16:30.918Z,976.30
2022-09-27T03:17:30.854Z,976.25
2022-09-27T03:18:30.844Z,976.26
2022-09-27T03:19:30.869Z,976.28
2022-09-27T03:20:30.857Z,976.25
2022-09-27T03:21:30.813Z,976.24
2022-09-27T03:22:30.810Z,976.27
2022-09-27T03:23:30.802Z,976.27
2022-09-27T03:24:30.831Z,976.26
2022-09-27T03:25:30.790Z,976.28
2022-09-27T03:26:30.778Z,976.31
2022-09-27T03:27:30.766Z,976.26
2022-09-27T03:28:30.764Z,976.31
2022-09-27T03:29:30.746Z,976.25
2022-09-27T03:30:30.803Z,976.24
2022-09-27T03:31:31.824Z,976.33
2022-09-27T03:32:30.720Z,976.25
2022-09-27T03:33:30.718Z,976.26
2022-09-27T03:34:30.714Z,976.26
2022-09-27T03:35:30.730Z,976.29
2022-09-27T03:36:30.688Z,976.24
2022-09-27T03:37:30.681Z,976.34
2022-09-27T03:38:30.672Z,976.32
2022-09-27T03:39:30.677Z,976.35
2022-09-27T03:40:30.755Z,976.31
2022-09-27T03:41:30.652Z,976.29
2022-09-27T03:42:30.644Z,976.27
2022-09-27T03:43:30.633Z,976.29
2022-09-27T03:44:30.630Z,976.27
2022-09-27T03:45:30.648Z,976.26
2022-09-27T03:46:30.707Z,976.26
2022-09-27T03:47:30.595Z,976.27
2022-09-27T03:48:30.590Z,976.27
2022-09-27T03:49:30.611Z,976.28
2022-09-27T03:50:30.602Z,976.27
2022-09-27T03:51:30.576Z,976.23
2022-09-27T03:52:30.563Z,976.24
2022-09-27T03:53:30.561Z,976.29
2022-09-27T03:54:30.545Z,976.23
2022-09-27T03:55:30.602Z,976.25
2022-09-27T03:56:30.529Z,976.24
2022-09-27T03:57:30.523Z,976.25
2022-09-27T03:58:30.522Z,976.21
2022-09-27T03:59:30.516Z,976.22
2022-09-27T04:00:30.528Z,976.25
2022-09-27T04:01:30.566Z,976.23
2022-09-27T04:02:30.537Z,976.27
2022-09-27T04:03:30.490Z,976.17
2022-09-27T04:04:30.464Z,976.22
2022-09-27T04:05:30.521Z,976.25
2022-09-27T04:06:30.455Z,976.22
2022-09-27T04:07:30.447Z,976.30
2022-09-27T04:08:30.455Z,976.28
2022-09-27T04:09:30.437Z,976.30
2022-09-27T04:10:30.463Z,976.31
2022-09-27T04:11:30.419Z,976.30
2022-09-27T04:12:30.400Z,976.32
2022-09-27T04:13:30.413Z,976.32
2022-09-27T04:14:30.388Z,976.35
2022-09-27T04:15:30.428Z,976.33
2022-09-27T04:16:30.408Z,976.41
2022-09-27T04:17:30.363Z,976.33
2022-09-27T04:18:30.358Z,976.30
2022-09-27T04:19:30.345Z,976.34
2022-09-27T04:20:30.375Z,976.39
2022-09-27T04:21:30.335Z,976.39
2022-09-27T04:22:30.320Z,976.42
2022-09-27T04:23:30.433Z,976.40
2022-09-27T04:24:30.307Z,976.44
2022-09-27T04:25:30.334Z,976.40
2022-09-27T04:26:30.294Z,976.40
2022-09-27T04:27:30.295Z,976.45
2022-09-27T04:28:30.277Z,976.38
2022-09-27T04:29:30.303Z,976.40
2022-09-27T04:30:30.340Z,976.44
2022-09-27T04:31:30.316Z,976.43
2022-09-27T04:32:30.250Z,976.39
2022-09-27T04:33:30.239Z,976.52
2022-09-27T04:34:30.273Z,976.47
2022-09-27T04:35:30.223Z,976.46
2022-09-27T04:36:30.218Z,976.51
2022-09-27T04:37:30.207Z,976.50
2022-09-27T04:38:30.197Z,976.51
2022-09-27T04:39:30.220Z,976.49
2022-09-27T04:40:30.237Z,976.54
2022-09-27T04:41:30.183Z,976.54
2022-09-27T04:42:30.165Z,976.59
2022-09-27T04:43:30.151Z,976.59
2022-09-27T04:44:30.170Z,976.61
2022-09-27T04:45:30.127Z,976.67
2022-09-27T04:46:30.196Z,976.59
2022-09-27T04:47:30.119Z,976.66
2022-09-27T04:48:30.116Z,976.55
2022-09-27T04:49:30.129Z,976.68
2022-09-27T04:50:33.255Z,976.66
2022-09-27T04:51:32.084Z,976.75
2022-09-27T04:52:30.077Z,976.76
2022-09-27T04:53:30.076Z,976.74
2022-09-27T04:54:30.080Z,976.79
2022-09-27T04:55:30.052Z,976.73
2022-09-27T04:56:30.051Z,976.74
2022-09-27T04:57:30.034Z,976.82
2022-09-27T04:58:30.033Z,976.87
2022-09-27T04:59:30.046Z,976.83
2022-09-27T05:00:30.012Z,976.87
2022-09-27T05:01:30.057Z,976.92
2022-09-27T05:02:30.011Z,976.89
2022-09-27T05:03:29.993Z,976.94
2022-09-27T05:04:30.015Z,976.86
2022-09-27T05:05:29.969Z,976.97
2022-09-27T05:06:29.963Z,977.04
2022-09-27T05:07:29.967Z,976.93
2022-09-27T05:08:29.946Z,976.93
2022-09-27T05:09:29.995Z,976.96
2022-09-27T05:10:29.929Z,976.99
2022-09-27T05:11:29.917Z,976.99
2022-09-27T05:12:29.913Z,976.99
2022-09-27T05:13:29.905Z,976.99
2022-09-27T05:14:29.936Z,977.02
2022-09-27T05:15:29.887Z,977.02
2022-09-27T05:16:32.105Z,977.01
2022-09-27T05:17:29.866Z,977.09
2022-09-27T05:18:29.863Z,977.09
2022-09-27T05:19:29.892Z,977.07
2022-09-27T05:20:29.857Z,977.10
2022-09-27T05:21:29.834Z,977.09
2022-09-27T05:22:29.828Z,977.14
2022-09-27T05:23:29.829Z,977.11
2022-09-27T05:24:29.840Z,977.11
2022-09-27T05:25:29.796Z,977.19
2022-09-27T05:26:29.819Z,977.14
2022-09-27T05:27:29.787Z,977.25
2022-09-27T05:28:29.780Z,977.17
2022-09-27T05:29:29.798Z,977.20
2022-09-27T05:30:29.793Z,977.17
2022-09-27T05:31:29.797Z,977.17
2022-09-27T05:32:29.745Z,977.24
2022-09-27T05:33:29.741Z,977.18
2022-09-27T05:34:29.765Z,977.22
2022-09-27T05:35:29.724Z,977.23
2022-09-27T05:36:29.715Z,977.23
2022-09-27T05:37:29.705Z,977.27
2022-09-27T05:38:29.692Z,977.29
2022-09-27T05:39:29.728Z,977.28
2022-09-27T05:40:40.818Z,977.32
2022-09-27T05:41:31.815Z,977.29
2022-09-27T05:42:29.660Z,977.30
2022-09-27T05:43:29.656Z,977.32
2022-09-27T05:44:29.644Z,977.32
2022-09-27T05:45:29.663Z,977.35
2022-09-27T05:46:29.693Z,977.30
2022-09-27T05:47:29.616Z,977.28
2022-09-27T05:48:29.610Z,977.26
2022-09-27T05:49:29.598Z,977.26
2022-09-27T05:50:29.625Z,977.29
2022-09-27T05:51:29.583Z,977.31
2022-09-27T05:52:29.580Z,977.37
2022-09-27T05:53:29.557Z,977.33
2022-09-27T05:54:29.555Z,977.34
2022-09-27T05:55:29.579Z,977.37
2022-09-27T05:56:29.543Z,977.35
2022-09-27T05:57:29.533Z,977.36
2022-09-27T05:58:29.535Z,977.34
2022-09-27T05:59:29.546Z,977.40
2022-09-27T06:00:29.596Z,977.41
2022-09-27T06:01:29.515Z,977.36
2022-09-27T06:02:29.526Z,977.37
2022-09-27T06:03:29.486Z,977.42
2022-09-27T06:04:29.502Z,977.40
2022-09-27T06:05:29.461Z,977.45
2022-09-27T06:06:29.471Z,977.43
2022-09-27T06:07:29.449Z,977.43
2022-09-27T06:08:29.448Z,977.46
2022-09-27T06:09:29.462Z,977.48
2022-09-27T06:10:29.424Z,977.52
2022-09-27T06:11:29.420Z,977.54
2022-09-27T06:12:29.415Z,977.43
2022-09-27T06:13:29.398Z,977.50
2022-09-27T06:14:29.424Z,977.50
2022-09-27T06:15:29.387Z,977.53
2022-09-27T06:16:29.416Z,977.54
2022-09-27T06:17:29.366Z,977.54
2022-09-27T06:18:29.354Z,977.58
2022-09-27T06:19:29.395Z,977.53
2022-09-27T06:20:29.347Z,977.52
2022-09-27T06:21:29.331Z,977.57
2022-09-27T06:22:29.318Z,977.55
2022-09-27T06:23:29.315Z,977.60
2022-09-27T06:24:29.297Z,977.61
2022-09-27T06:25:29.328Z,977.67
2022-09-27T06:26:29.306Z,977.55
2022-09-27T06:27:29.284Z,977.70
2022-09-27T06:28:29.274Z,977.66
2022-09-27T06:29:29.294Z,977.66
2022-09-27T06:30:29.397Z,977.67
2022-09-27T06:31:29.247Z,977.71
2022-09-27T06:32:29.249Z,977.75
2022-09-27T06:33:29.237Z,977.78
2022-09-27T06:34:29.250Z,977.79
2022-09-27T06:35:29.215Z,977.81
2022-09-27T06:36:29.204Z,977.79
2022-09-27T06:37:30.202Z,977.82
2022-09-27T06:38:29.195Z,977.82
2022-09-27T06:39:29.210Z,977.88
2022-09-27T06:40:29.222Z,977.79
2022-09-27T06:41:29.166Z,977.86
2022-09-27T06:42:29.159Z,977.93
2022-09-27T06:43:29.157Z,977.81
2022-09-27T06:44:29.167Z,977.99
2022-09-27T06:45:29.126Z,977.98
2022-09-27T06:46:29.188Z,977.95
2022-09-27T06:47:29.157Z,977.97
2022-09-27T06:48:29.108Z,977.95
2022-09-27T06:49:29.132Z,978.00
2022-09-27T06:50:29.090Z,978.05
2022-09-27T06:51:29.081Z,977.97
2022-09-27T06:52:29.075Z,977.98
2022-09-27T06:53:29.072Z,977.98
2022-09-27T06:54:29.079Z,977.99
2022-09-27T06:55:29.049Z,978.01
2022-09-27T06:56:29.039Z,978.05
2022-09-27T06:57:30.036Z,978.06
2022-09-27T06:58:29.025Z,978.13
2022-09-27T06:59:29.048Z,978.18
2022-09-27T07:00:29.004Z,978.11
2022-09-27T07:01:29.181Z,978.16
2022-09-27T07:02:29.006Z,978.16
2022-09-27T07:03:32.991Z,978.24
2022-09-27T07:04:31.006Z,978.15
2022-09-27T07:05:28.979Z,978.21
2022-09-27T07:06:28.966Z,978.20
2022-09-27T07:07:29.059Z,978.22
2022-09-27T07:08:28.952Z,978.24
2022-09-27T07:09:28.980Z,978.30
2022-09-27T07:10:28.925Z,978.30
2022-09-27T07:11:28.929Z,978.34
2022-09-27T07:12:28.916Z,978.35
2022-09-27T07:13:28.905Z,978.35
2022-09-27T07:14:28.932Z,978.39
2022-09-27T07:15:28.889Z,978.41
2022-09-27T07:16:28.923Z,978.39
2022-09-27T07:17:28.876Z,978.45
2022-09-27T07:18:28.868Z,978.42
2022-09-27T07:19:28.866Z,978.42
2022-09-27T07:20:28.880Z,978.49
2022-09-27T07:21:28.844Z,978.52
2022-09-27T07:22:28.830Z,978.43
2022-09-27T07:23:28.821Z,978.47
2022-09-27T07:25:01.768Z,978.48
2022-09-27T07:25:28.811Z,978.55
2022-09-27T07:26:28.798Z,978.54
2022-09-27T07:27:28.786Z,978.54
2022-09-27T07:28:28.784Z,978.47
2022-09-27T07:29:28.816Z,978.50
2022-09-27T07:30:28.812Z,978.50
2022-09-27T07:31:28.761Z,978.52
2022-09-27T07:32:28.751Z,978.51
2022-09-27T07:33:28.747Z,978.53
2022-09-27T07:34:28.733Z,978.59
2022-09-27T07:35:28.757Z,978.54
2022-09-27T07:36:28.719Z,978.57
2022-09-27T07:37:28.704Z,978.56
2022-09-27T07:38:28.705Z,978.55
2022-09-27T07:39:28.690Z,978.64
2022-09-27T07:40:28.760Z,978.65
2022-09-27T07:41:28.688Z,978.67
2022-09-27T07:42:28.664Z,978.68
2022-09-27T07:43:28.673Z,978.75
2022-09-27T07:44:28.660Z,978.67
2022-09-27T07:45:28.674Z,978.72
2022-09-27T07:46:28.638Z,978.67
2022-09-27T07:47:28.625Z,978.72
2022-09-27T07:48:28.623Z,978.75
2022-09-27T07:49:28.609Z,978.78
2022-09-27T07:50:28.629Z,978.76
2022-09-27T07:51:28.588Z,978.80
2022-09-27T07:52:28.588Z,978.79
2022-09-27T07:53:28.580Z,978.81
2022-09-27T07:54:28.569Z,978.85
2022-09-27T07:55:28.585Z,978.90
2022-09-27T07:56:28.550Z,978.90
2022-09-27T07:57:29.503Z,978.82
2022-09-27T07:58:28.540Z,978.91
2022-09-27T07:59:28.526Z,978.91
2022-09-27T08:00:28.553Z,978.93
2022-09-27T08:01:28.547Z,978.89
2022-09-27T08:02:28.573Z,978.91
2022-09-27T08:03:28.494Z,978.92
2022-09-27T08:04:28.491Z,978.91
2022-09-27T08:05:28.509Z,978.89
2022-09-27T08:06:28.473Z,978.88
2022-09-27T08:07:28.462Z,978.95
2022-09-27T08:08:28.450Z,979.01
2022-09-27T08:09:28.443Z,978.90
2022-09-27T08:10:28.467Z,978.93
2022-09-27T08:11:28.425Z,979.04
2022-09-27T08:12:28.436Z,979.09
2022-09-27T08:13:28.414Z,979.03
2022-09-27T08:14:28.410Z,979.01
2022-09-27T08:15:28.421Z,978.98
2022-09-27T08:16:28.448Z,978.97
2022-09-27T08:17:28.389Z,979.00
2022-09-27T08:18:28.371Z,979.03
2022-09-27T08:19:28.365Z,979.07
2022-09-27T08:20:28.380Z,979.05
2022-09-27T08:21:28.347Z,979.04
2022-09-27T08:22:28.341Z,979.04
2022-09-27T08:23:28.326Z,979.05
2022-09-27T08:24:28.328Z,979.06
2022-09-27T08:25:28.340Z,979.06
2022-09-27T08:26:28.301Z,979.01
2022-09-27T08:27:28.291Z,979.08
2022-09-27T08:28:28.293Z,979.04
2022-09-27T08:29:28.279Z,979.11
2022-09-27T08:30:28.299Z,979.07
2022-09-27T08:31:28.306Z,979.09
2022-09-27T08:32:28.256Z,979.08
2022-09-27T08:33:32.371Z,979.09
2022-09-27T08:34:29.246Z,979.15
2022-09-27T08:35:28.259Z,979.17
2022-09-27T08:36:28.217Z,979.18
2022-09-27T08:37:28.214Z,979.23
2022-09-27T08:38:28.203Z,979.24
2022-09-27T08:39:28.193Z,979.25
2022-09-27T08:40:28.311Z,979.24
2022-09-27T08:41:28.186Z,979.21
2022-09-27T08:42:28.171Z,979.24
2022-09-27T08:43:28.156Z,979.21
2022-09-27T08:44:28.153Z,979.18
2022-09-27T08:45:28.193Z,979.30
2022-09-27T08:46:28.137Z,979.32
2022-09-27T08:47:28.123Z,979.23
2022-09-27T08:48:28.121Z,979.23
2022-09-27T08:49:28.109Z,979.24
2022-09-27T08:50:28.131Z,979.17
2022-09-27T08:51:28.102Z,979.29
2022-09-27T08:52:28.083Z,979.22
2022-09-27T08:53:28.095Z,979.22
2022-09-27T08:54:28.068Z,979.25
2022-09-27T08:55:28.093Z,979.27
2022-09-27T08:56:28.056Z,979.24
2022-09-27T08:57:28.048Z,979.28
2022-09-27T08:58:28.035Z,979.32
2022-09-27T08:59:28.030Z,979.37
2022-09-27T09:00:28.051Z,979.29
2022-09-27T09:01:29.194Z,979.30
2022-09-27T09:02:29.050Z,979.30
2022-09-27T09:03:28.001Z,979.32
2022-09-27T09:04:27.987Z,979.48
2022-09-27T09:05:28.003Z,979.34
2022-09-27T09:06:27.972Z,979.33
2022-09-27T09:07:27.966Z,979.36
2022-09-27T09:08:27.962Z,979.35
2022-09-27T09:09:27.946Z,979.41
2022-09-27T09:10:27.965Z,979.45
2022-09-27T09:11:27.936Z,979.40
2022-09-27T09:12:27.925Z,979.37
2022-09-27T09:13:27.905Z,979.42
2022-09-27T09:14:27.899Z,979.42
2022-09-27T09:15:27.921Z,979.33
2022-09-27T09:16:27.896Z,979.52
2022-09-27T09:17:27.884Z,979.43
2022-09-27T09:18:27.870Z,979.58
2022-09-27T09:19:27.864Z,979.54
2022-09-27T09:20:27.895Z,979.43
2022-09-27T09:21:27.848Z,979.40
2022-09-27T09:22:27.845Z,979.44
2022-09-27T09:23:27.863Z,979.40
2022-09-27T09:24:27.827Z,979.46
2022-09-27T09:25:27.816Z,979.54
2022-09-27T09:26:27.807Z,979.45
2022-09-27T09:27:27.827Z,979.48
2022-09-27T09:28:27.800Z,979.56
2022-09-27T09:29:27.786Z,979.42
2022-09-27T09:30:27.775Z,979.53
2022-09-27T09:31:27.838Z,979.42
2022-09-27T09:32:28.790Z,979.46
2022-09-27T09:33:27.761Z,979.50
2022-09-27T09:34:27.746Z,979.53
2022-09-27T09:35:27.740Z,979.50
2022-09-27T09:36:27.723Z,979.52
2022-09-27T09:37:27.822Z,979.39
2022-09-27T09:38:27.713Z,979.46
2022-09-27T09:39:27.705Z,979.44
2022-09-27T09:40:27.742Z,979.54
2022-09-27T09:41:27.688Z,979.52
2022-09-27T09:42:27.713Z,979.56
2022-09-27T09:43:27.671Z,979.53
2022-09-27T09:44:27.664Z,979.59
2022-09-27T09:45:27.713Z,979.53
2022-09-27T09:46:27.640Z,979.67
2022-09-27T09:47:28.661Z,979.54
2022-09-27T09:48:27.631Z,979.61
2022-09-27T09:49:27.620Z,979.59
2022-09-27T09:50:27.608Z,979.54
2022-09-27T09:51:27.593Z,979.54
2022-09-27T09:52:27.617Z,979.43
2022-09-27T09:53:27.591Z,979.29
2022-09-27T09:54:27.574Z,979.32
2022-09-27T09:55:27.565Z,979.29
2022-09-27T09:56:27.560Z,979.38
2022-09-27T09:57:27.585Z,979.37
2022-09-27T09:58:27.552Z,979.42
2022-09-27T09:59:27.539Z,979.45
2022-09-27T10:00:27.534Z,979.43
2022-09-27T10:01:27.569Z,979.42
2022-09-27T10:02:27.625Z,979.43
2022-09-27T10:03:27.507Z,979.53
2022-09-27T10:04:27.503Z,979.56
2022-09-27T10:05:27.489Z,979.55
2022-09-27T10:06:27.480Z,979.54
2022-09-27T10:07:27.499Z,979.60
2022-09-27T10:08:27.467Z,979.63
2022-09-27T10:09:27.455Z,979.66
2022-09-27T10:10:27.448Z,979.65
2022-09-27T10:11:27.478Z,979.54
2022-09-27T10:12:27.468Z,979.60
2022-09-27T10:13:27.422Z,979.62
2022-09-27T10:14:27.419Z,979.59
2022-09-27T10:15:27.407Z,979.63
2022-09-27T10:16:27.475Z,979.61
2022-09-27T10:17:27.398Z,979.56
2022-09-27T10:18:27.384Z,979.57
2022-09-27T10:19:27.389Z,979.62
2022-09-27T10:20:27.366Z,979.60
2022-09-27T10:21:27.405Z,979.53
2022-09-27T10:22:27.356Z,979.63
2022-09-27T10:23:27.346Z,979.53
2022-09-27T10:24:27.341Z,979.53
2022-09-27T10:25:27.329Z,979.49
2022-09-27T10:26:27.324Z,979.44
2022-09-27T10:27:27.345Z,979.54
2022-09-27T10:28:27.311Z,979.46
2022-09-27T10:29:27.306Z,979.48
2022-09-27T10:30:27.295Z,979.40
2022-09-27T10:31:27.354Z,979.41
2022-09-27T10:32:27.328Z,979.49
2022-09-27T10:33:27.335Z,979.39
2022-09-27T10:34:27.256Z,979.46
2022-09-27T10:35:27.246Z,979.47
2022-09-27T10:36:27.242Z,979.55
2022-09-27T10:37:27.263Z,979.53
2022-09-27T10:38:27.224Z,979.55
2022-09-27T10:39:27.222Z,979.52
2022-09-27T10:40:27.246Z,979.55
2022-09-27T10:41:27.195Z,979.58
2022-09-27T10:42:27.227Z,979.59
2022-09-27T10:43:29.664Z,979.52
2022-09-27T10:44:28.171Z,979.57
2022-09-27T10:45:27.199Z,979.54
2022-09-27T10:46:27.164Z,979.61
2022-09-27T10:47:27.180Z,979.61
2022-09-27T10:48:27.142Z,979.61
2022-09-27T10:49:27.143Z,979.67
2022-09-27T10:50:49.097Z,979.64
2022-09-27T10:51:29.156Z,979.66
2022-09-27T10:52:27.114Z,979.66
2022-09-27T10:53:27.108Z,979.72
2022-09-27T10:54:27.100Z,979.70
2022-09-27T10:55:27.091Z,979.67
2022-09-27T10:56:27.086Z,979.60
2022-09-27T10:57:27.107Z,979.62
2022-09-27T10:58:27.072Z,979.60
2022-09-27T10:59:27.060Z,979.64
2022-09-27T11:00:27.058Z,979.55
2022-09-27T11:01:27.122Z,979.53
2022-09-27T11:02:27.127Z,979.53
2022-09-27T11:03:27.018Z,979.55
2022-09-27T11:04:27.062Z,979.55
2022-09-27T11:05:27.014Z,979.54
2022-09-27T11:06:26.999Z,979.58
2022-09-27T11:07:27.022Z,979.50
2022-09-27T11:08:26.986Z,979.66
2022-09-27T11:09:26.974Z,979.51
2022-09-27T11:10:26.967Z,979.54
2022-09-27T11:11:26.962Z,979.57
2022-09-27T11:12:26.981Z,979.57
2022-09-27T11:13:26.941Z,979.52
2022-09-27T11:14:26.936Z,979.61
2022-09-27T11:15:26.931Z,979.65
2022-09-27T11:16:27.040Z,979.56
2022-09-27T11:17:26.942Z,979.62
2022-09-27T11:18:26.938Z,979.62
2022-09-27T11:19:26.903Z,979.66
2022-09-27T11:20:26.888Z,979.64
2022-09-27T11:21:26.883Z,979.60
2022-09-27T11:22:26.899Z,979.65
2022-09-27T11:23:26.873Z,979.66
2022-09-27T11:24:26.854Z,979.70
2022-09-27T11:25:31.577Z,979.67
2022-09-27T11:26:28.853Z,979.59
2022-09-27T11:27:26.852Z,979.70
2022-09-27T11:28:26.832Z,979.74
2022-09-27T11:29:26.813Z,979.72
2022-09-27T11:30:26.806Z,979.66
2022-09-27T11:31:26.834Z,979.72
2022-09-27T11:32:26.813Z,979.65
2022-09-27T11:33:26.779Z,979.74
2022-09-27T11:34:26.773Z,979.68
2022-09-27T11:35:26.758Z,979.74
2022-09-27T11:36:26.757Z,979.74
2022-09-27T11:37:26.780Z,979.72
2022-09-27T11:38:50.947Z,979.64
2022-09-27T11:39:28.725Z,979.63
2022-09-27T11:40:26.731Z,979.74
2022-09-27T11:41:26.711Z,979.74
2022-09-27T11:42:26.728Z,979.57
2022-09-27T11:43:26.702Z,979.78
2022-09-27T11:44:26.684Z,979.67
2022-09-27T11:45:40.956Z,979.67
2022-09-27T11:46:36.619Z,979.63
2022-09-27T11:47:28.795Z,979.65
2022-09-27T11:48:26.653Z,979.63
2022-09-27T11:49:26.648Z,979.66
2022-09-27T11:50:26.633Z,979.65
2022-09-27T11:51:27.626Z,979.66
2022-09-27T11:52:26.659Z,979.66
2022-09-27T11:53:26.613Z,979.68
2022-09-27T11:54:26.606Z,979.66
2022-09-27T11:55:26.589Z,979.64
2022-09-27T11:56:26.598Z,979.59
2022-09-27T11:57:26.600Z,979.60
2022-09-27T11:58:27.838Z,979.55
2022-09-27T11:59:27.563Z,979.50
2022-09-27T12:00:26.550Z,979.49
2022-09-27T12:01:26.547Z,979.53
2022-09-27T12:02:26.666Z,979.49
2022-09-27T12:03:26.561Z,979.47
2022-09-27T12:04:26.517Z,979.47
2022-09-27T12:05:26.514Z,979.51
2022-09-27T12:06:26.502Z,979.44
2022-09-27T12:07:26.497Z,979.49
2022-09-27T12:08:26.513Z,979.46
2022-09-27T12:09:26.483Z,979.49
2022-09-27T12:10:26.457Z,979.51
2022-09-27T12:11:27.473Z,979.39
2022-09-27T12:12:26.451Z,979.52
2022-09-27T12:13:26.474Z,979.50
2022-09-27T12:14:27.190Z,979.47
2022-09-27T12:15:27.419Z,979.55
2022-09-27T12:16:26.416Z,979.45
2022-09-27T12:17:26.438Z,979.48
2022-09-27T12:18:26.404Z,979.45
2022-09-27T12:19:26.397Z,979.43
2022-09-27T12:20:26.393Z,979.48
2022-09-27T12:21:26.387Z,979.41
2022-09-27T12:22:53.868Z,979.39
2022-09-27T12:23:28.360Z,979.44
2022-09-27T12:24:26.357Z,979.52
2022-09-27T12:25:26.402Z,979.42
2022-09-27T12:26:26.342Z,979.45
2022-09-27T12:27:26.369Z,979.43
2022-09-27T12:28:28.454Z,979.41